This is the latest recevied weather packets stored in our database for station/object OK4PZ-5. If no packets are shown the sender has not sent any weather packets the latest 10 day(s).
| Time | Temp. | Humidity | Pressure | Rain* | Wind** | Luminosity | Snow |
|---|---|---|---|---|---|---|---|
| 1777311003 | 13.89° C | 37% | 1021 hPa | 0 mm | - | - | - |
| 1777310102 | 14.44° C | 37% | 1021 hPa | 0 mm | - | - | - |
| 1777309202 | 15° C | 36% | 1021 hPa | 0 mm | - | - | - |
| 1777308303 | 15° C | 37% | 1021 hPa | 0 mm | - | - | - |
| 1777307403 | 15.56° C | 33% | 1021 hPa | 0 mm | - | - | - |
| 1777306502 | 16.11° C | 31% | 1021 hPa | 0 mm | - | - | - |
| 1777305602 | 16.11° C | 30% | 1021 hPa | 0 mm | - | - | - |
| 1777304703 | 16.67° C | 30% | 1021 hPa | 0 mm | - | - | - |
| 1777303802 | 16.67° C | 30% | 1022 hPa | 0 mm | - | - | - |
| 1777302902 | 17.22° C | 29% | 1022 hPa | 0 mm | - | - | - |
| 1777302002 | 17.78° C | 29% | 1022 hPa | 0 mm | - | - | - |
| 1777301103 | 16.67° C | 31% | 1022 hPa | 0 mm | - | - | - |
| 1777300202 | 17.22° C | 30% | 1022 hPa | 0 mm | - | - | - |
| 1777299303 | 17.78° C | 28% | 1022 hPa | 0 mm | - | - | - |
| 1777298402 | 17.78° C | 28% | 1022 hPa | 0 mm | - | - | - |
| 1777297502 | 17.78° C | 29% | 1022 hPa | 0 mm | - | - | - |
| 1777296603 | 18.33° C | 28% | 1022 hPa | 0 mm | - | - | - |
| 1777295702 | 17.78° C | 29% | 1022 hPa | 0 mm | - | - | - |
| 1777294802 | 17.22° C | 30% | 1022 hPa | 0 mm | - | - | - |
| 1777293902 | 16.67° C | 32% | 1023 hPa | 0 mm | - | - | - |
| 1777293002 | 16.67° C | 32% | 1023 hPa | 0 mm | - | - | - |
| 1777292102 | 16.67° C | 34% | 1023 hPa | 0 mm | - | - | - |
| 1777291203 | 16.67° C | 33% | 1023 hPa | 0 mm | - | - | - |
| 1777290303 | 16.67° C | 32% | 1023 hPa | 0 mm | - | - | - |
| 1777289402 | 16.11° C | 34% | 1024 hPa | 0 mm | - | - | - |
* Rain latest hour (hover to see other rain measurements)
** Current wind speed in m/s (hover to see current wind gust speed)